createdAt,value
2022-08-26T08:35:52.263Z,98567.06
2022-08-26T08:38:05.238Z,98544.03
2022-08-26T08:41:43.082Z,98541.47
2022-08-26T08:43:18.458Z,98539.00
2022-08-26T08:45:04.090Z,98541.44
2022-08-26T08:46:35.970Z,98538.72
2022-08-26T08:48:38.692Z,98540.88
2022-08-26T08:50:26.417Z,98535.88
2022-08-26T09:06:01.951Z,98505.69
2022-08-26T09:13:08.188Z,98504.97
2022-08-26T09:14:40.280Z,98502.25
2022-08-26T09:16:22.275Z,98497.28
2022-08-26T09:17:53.801Z,98493.06
2022-08-26T09:19:49.583Z,98496.66
2022-08-26T09:21:21.854Z,98494.09
2022-08-26T09:22:54.933Z,98481.88
2022-08-26T09:24:28.488Z,98491.38
2022-08-26T09:26:27.156Z,98496.44
2022-08-26T09:28:03.669Z,98493.41
2022-08-26T09:29:41.705Z,98498.25
2022-08-26T09:31:25.317Z,98491.31
2022-08-26T09:33:03.169Z,98495.91
2022-08-26T09:34:55.964Z,98486.56
2022-08-26T09:36:41.369Z,98495.25
2022-08-26T09:38:23.734Z,98480.34
2022-08-26T09:40:20.318Z,98473.63
2022-08-26T09:42:01.655Z,98472.22
2022-08-26T09:43:37.599Z,98470.81
2022-08-26T09:45:11.684Z,98470.09
2022-08-26T09:46:51.572Z,98464.41
2022-08-26T09:48:24.410Z,98466.53
2022-08-26T09:50:12.483Z,98467.78
2022-08-26T09:51:44.969Z,98455.91
2022-08-26T09:53:30.395Z,98458.84
2022-08-26T09:55:05.163Z,98454.91
2022-08-26T09:56:37.934Z,98454.16
2022-08-26T09:58:37.996Z,98461.72
2022-08-26T10:00:27.269Z,98450.16
2022-08-26T10:02:15.441Z,98442.09
2022-08-26T10:03:51.835Z,98440.31
2022-08-26T10:05:29.441Z,98450.09
2022-08-26T10:07:04.406Z,98448.94
2022-08-26T10:08:37.577Z,98444.50
2022-08-26T10:10:14.585Z,98442.72
2022-08-26T10:11:47.754Z,98444.47
2022-08-26T10:13:25.713Z,98435.91
2022-08-26T10:15:00.849Z,98436.97
2022-08-26T10:16:45.765Z,98437.28
2022-08-26T10:18:24.436Z,98434.34
2022-08-26T10:19:59.264Z,98425.91
2022-08-26T10:21:52.178Z,98420.72
2022-08-26T10:23:26.757Z,98423.28
2022-08-26T10:24:59.763Z,98411.91
2022-08-26T10:26:49.993Z,98416.59
2022-08-26T10:28:44.323Z,98428.72
2022-08-26T10:30:18.061Z,98420.88
2022-08-26T10:31:52.013Z,98410.69
2022-08-26T10:33:24.379Z,98408.47
2022-08-26T10:35:00.556Z,98414.03
2022-08-26T10:36:52.293Z,98411.78
2022-08-26T10:38:31.129Z,98402.63
2022-08-26T10:40:21.897Z,98397.31
2022-08-26T10:41:57.789Z,98398.38
2022-08-26T10:43:41.760Z,98396.16
2022-08-26T10:45:15.378Z,98396.00
2022-08-26T10:47:02.157Z,98398.50
2022-08-26T10:48:43.411Z,98388.59
2022-08-26T10:51:57.571Z,98459.66
2022-08-26T10:54:29.649Z,98397.91
2022-08-26T10:56:19.703Z,98396.50
2022-08-26T11:04:23.581Z,98402.00
2022-08-26T11:07:43.024Z,98383.38
2022-08-26T11:10:42.331Z,98372.19
2022-08-26T11:12:35.584Z,98369.72
2022-08-26T11:14:10.458Z,98370.63
2022-08-26T11:15:56.348Z,98360.44
2022-08-26T11:17:46.279Z,98356.19
2022-08-26T11:19:45.357Z,98360.78
2022-08-26T11:21:59.304Z,98360.59
2022-08-26T11:23:33.614Z,98352.47
2022-08-26T11:25:08.602Z,98353.47
2022-08-26T11:26:56.128Z,98350.72
2022-08-26T11:28:38.282Z,98337.75
2022-08-26T11:30:12.918Z,98350.25
2022-08-26T11:31:52.152Z,98327.03
2022-08-26T11:33:42.709Z,98326.50
2022-08-26T11:35:17.070Z,98330.66
2022-08-26T11:36:54.520Z,98324.75
2022-08-26T11:38:29.044Z,98327.34
2022-08-26T11:40:01.026Z,98323.09
2022-08-26T11:41:34.518Z,98313.41
2022-08-26T11:43:05.998Z,98309.66
2022-08-26T11:44:40.709Z,98296.72
2022-08-26T11:46:12.462Z,98306.63
2022-08-26T11:47:43.990Z,98296.28
2022-08-26T11:49:15.633Z,98295.53
2022-08-26T11:50:57.563Z,98315.59
2022-08-26T11:52:29.371Z,98325.84
2022-08-26T11:54:30.765Z,98339.16
2022-08-26T11:56:17.944Z,98332.34
2022-08-26T11:57:57.035Z,98335.16
2022-08-26T11:59:38.708Z,98344.31
2022-08-26T12:01:12.284Z,98340.63
2022-08-26T12:02:43.955Z,98341.25
2022-08-26T12:04:31.019Z,98353.41
2022-08-26T12:06:03.597Z,98343.81
2022-08-26T12:07:35.319Z,98351.63
2022-08-26T12:09:10.659Z,98353.78
2022-08-26T12:10:42.376Z,98350.53
2022-08-26T12:12:16.356Z,98346.53
2022-08-26T12:14:07.301Z,98349.50
2022-08-26T12:15:39.107Z,98352.44
2022-08-26T12:17:15.970Z,98346.22
2022-08-26T12:18:47.655Z,98347.91
2022-08-26T12:20:32.986Z,98348.53
2022-08-26T12:22:09.735Z,98342.53
2022-08-26T12:23:41.421Z,98345.00
2022-08-26T12:25:13.505Z,98345.84
2022-08-26T12:26:45.817Z,98344.19
2022-08-26T12:28:17.818Z,98347.22
2022-08-26T12:30:12.453Z,98348.47
2022-08-26T12:31:45.985Z,98348.78
2022-08-26T12:33:22.822Z,98337.03
2022-08-26T12:34:55.210Z,98349.31
2022-08-26T12:36:29.511Z,98335.03
2022-08-26T12:38:01.218Z,98339.00
2022-08-26T12:39:34.933Z,98329.94
2022-08-26T12:41:06.660Z,98339.53
2022-08-26T12:42:42.002Z,98327.97
2022-08-26T12:44:36.858Z,98323.50
2022-08-26T12:46:11.044Z,98321.31
2022-08-26T12:47:44.152Z,98318.09
2022-08-26T12:49:18.281Z,98322.75
2022-08-26T12:50:50.456Z,98324.97
2022-08-26T12:52:24.062Z,98321.53
2022-08-26T12:53:55.783Z,98316.13
2022-08-26T12:55:33.063Z,98319.56
2022-08-26T12:57:11.659Z,98308.72
2022-08-26T12:58:43.350Z,98313.41
2022-08-26T13:00:36.040Z,98305.09
2022-08-26T13:02:07.910Z,98307.28
2022-08-26T13:03:43.548Z,98301.84
2022-08-26T13:05:41.666Z,98303.09
2022-08-26T13:07:24.715Z,98303.84
2022-08-26T13:09:04.673Z,98303.09
2022-08-26T13:10:37.991Z,98298.97
2022-08-26T13:12:09.684Z,98292.28
2022-08-26T13:13:41.343Z,98293.00
2022-08-26T13:15:13.042Z,98289.06
2022-08-26T13:16:44.842Z,98300.09
2022-08-26T13:18:16.529Z,98295.22
2022-08-26T13:19:48.256Z,98298.66
2022-08-26T13:21:22.057Z,98289.81
2022-08-26T13:22:58.695Z,98291.97
2022-08-26T13:24:35.971Z,98283.66
2022-08-26T13:26:07.634Z,98287.50
2022-08-26T13:27:39.367Z,98284.09
2022-08-26T13:29:11.214Z,98277.41
2022-08-26T13:30:44.585Z,98272.19
2022-08-26T13:32:16.272Z,98280.31
2022-08-26T13:33:47.979Z,98276.38
2022-08-26T13:35:21.091Z,98280.53
2022-08-26T13:36:53.460Z,98280.72
2022-08-26T13:38:33.172Z,98269.91
2022-08-26T13:40:06.237Z,98267.94
2022-08-26T13:41:38.072Z,98264.50
2022-08-26T13:43:12.847Z,98264.50
2022-08-26T13:44:44.789Z,98267.19
2022-08-26T13:46:16.485Z,98266.47
2022-08-26T13:47:48.512Z,98263.75
2022-08-26T13:49:20.179Z,98262.53
2022-08-26T13:50:51.874Z,98258.53
2022-08-26T13:52:27.254Z,98257.13
2022-08-26T13:54:02.903Z,98253.69
2022-08-26T13:55:35.872Z,98249.72
2022-08-26T13:57:07.576Z,98251.91
2022-08-26T13:58:39.258Z,98251.16
2022-08-26T14:00:11.703Z,98244.50
2022-08-26T14:01:43.442Z,98251.91
2022-08-26T14:03:15.148Z,98245.25
2022-08-26T14:04:46.809Z,98254.78
2022-08-26T14:06:18.507Z,98255.53
2022-08-26T14:07:50.161Z,98256.78
2022-08-26T14:09:21.803Z,98251.38
2022-08-26T14:10:53.558Z,98249.38
2022-08-26T14:12:25.217Z,98247.94
2022-08-26T14:13:56.874Z,98254.78
2022-08-26T14:15:28.660Z,98244.72
2022-08-26T14:17:01.066Z,98242.72
2022-08-26T14:18:38.392Z,98253.00
2022-08-26T14:20:23.824Z,98244.91
2022-08-26T14:21:55.583Z,98243.06
2022-08-26T14:23:27.343Z,98245.81
2022-08-26T14:24:59.082Z,98242.63
2022-08-26T14:26:30.718Z,98236.47
2022-08-26T14:28:02.423Z,98234.69
2022-08-26T14:29:34.100Z,98234.69
2022-08-26T14:31:06.155Z,98219.38
2022-08-26T14:32:38.926Z,98223.56
2022-08-26T14:34:10.583Z,98224.47
2022-08-26T14:35:47.366Z,98221.03
2022-08-26T14:37:20.747Z,98213.13
2022-08-26T14:38:52.481Z,98210.63
2022-08-26T14:40:24.495Z,98212.06
2022-08-26T14:43:27.697Z,98232.69
